createdAt,value
2019-01-28T00:00:35.273Z,57.35
2019-01-28T00:01:40.233Z,53.85
2019-01-28T00:02:43.689Z,46.42
2019-01-28T00:03:46.969Z,56.95
2019-01-28T00:04:50.251Z,71.70
2019-01-28T00:05:53.535Z,60.12
2019-01-28T00:06:56.846Z,61.88
2019-01-28T00:08:00.132Z,58.78
2019-01-28T00:09:04.667Z,117.90
2019-01-28T00:10:08.431Z,112.70
2019-01-28T00:11:11.714Z,85.83
2019-01-28T00:12:15.026Z,79.92
2019-01-28T00:13:18.385Z,69.92
2019-01-28T00:14:22.024Z,57.73
2019-01-28T00:15:25.383Z,56.95
2019-01-28T00:16:28.672Z,55.43
2019-01-28T00:17:32.064Z,54.90
2019-01-28T00:18:35.347Z,56.58
2019-01-28T00:19:38.633Z,61.45
2019-01-28T00:20:41.905Z,54.63
2019-01-28T00:21:45.257Z,59.65
2019-01-28T00:22:48.576Z,53.45
2019-01-28T00:23:51.965Z,53.08
2019-01-28T00:24:55.312Z,58.48
2019-01-28T00:25:58.601Z,49.65
2019-01-28T00:27:01.888Z,57.50
2019-01-28T00:28:05.202Z,70.97
2019-01-28T00:29:08.477Z,83.25
2019-01-28T00:30:11.904Z,73.90
2019-01-28T00:31:15.188Z,68.05
2019-01-28T00:32:18.472Z,60.52
2019-01-28T00:33:21.759Z,60.98
2019-01-28T00:34:25.046Z,59.13
2019-01-28T00:35:28.337Z,55.38
2019-01-28T00:36:31.685Z,50.83
2019-01-28T00:37:34.980Z,50.50
2019-01-28T00:38:38.305Z,52.35
2019-01-28T00:39:41.589Z,55.03
2019-01-28T00:40:44.879Z,54.75
2019-01-28T00:41:48.166Z,55.58
2019-01-28T00:42:51.479Z,55.30
2019-01-28T00:43:54.799Z,50.05
2019-01-28T00:44:58.084Z,51.25
2019-01-28T00:46:01.369Z,48.58
2019-01-28T00:47:04.950Z,51.95
2019-01-28T00:48:08.231Z,51.63
2019-01-28T00:49:11.539Z,52.67
2019-01-28T00:50:14.831Z,50.03
2019-01-28T00:51:18.102Z,53.73
2019-01-28T00:52:21.385Z,56.65
2019-01-28T00:53:24.672Z,56.48
2019-01-28T00:54:27.978Z,59.60
2019-01-28T00:55:31.410Z,57.90
2019-01-28T00:56:34.688Z,57.67
2019-01-28T00:57:38.041Z,60.43
2019-01-28T00:58:41.317Z,60.15
2019-01-28T00:59:44.706Z,55.92
2019-01-28T01:00:47.981Z,57.27
2019-01-28T01:01:51.944Z,59.10
2019-01-28T01:02:55.612Z,60.35
2019-01-28T01:03:58.891Z,61.37
2019-01-28T01:05:02.542Z,63.20
2019-01-28T01:06:05.823Z,63.85
2019-01-28T01:07:09.111Z,59.20
2019-01-28T01:08:12.397Z,61.42
2019-01-28T01:09:15.823Z,65.45
2019-01-28T01:10:19.136Z,61.15
2019-01-28T01:11:22.419Z,62.53
2019-01-28T01:12:25.706Z,64.47
2019-01-28T01:13:29.385Z,66.92
2019-01-28T01:14:32.666Z,58.50
2019-01-28T01:15:35.987Z,65.05
2019-01-28T01:16:39.259Z,61.13
2019-01-28T01:17:42.551Z,62.20
2019-01-28T01:18:45.833Z,60.85
2019-01-28T01:19:49.122Z,67.03
2019-01-28T01:20:52.865Z,64.12
2019-01-28T01:21:56.144Z,65.40
2019-01-28T01:22:59.427Z,65.75
2019-01-28T01:24:02.717Z,73.30
2019-01-28T01:25:06.921Z,72.85
2019-01-28T01:26:10.238Z,63.42
2019-01-28T01:27:13.585Z,64.27
2019-01-28T01:28:16.939Z,63.38
2019-01-28T01:29:20.226Z,65.83
2019-01-28T01:30:23.512Z,61.30
2019-01-28T01:31:27.187Z,63.52
2019-01-28T01:32:30.469Z,68.12
2019-01-28T01:33:34.132Z,61.63
2019-01-28T01:34:37.416Z,67.22
2019-01-28T01:35:40.709Z,75.08
2019-01-28T01:36:44.008Z,86.95
2019-01-28T01:37:47.676Z,79.17
2019-01-28T01:38:50.952Z,76.10
2019-01-28T01:39:54.253Z,76.62
2019-01-28T01:40:57.568Z,82.10
2019-01-28T01:42:00.892Z,74.65
2019-01-28T01:43:04.173Z,73.72
2019-01-28T01:44:07.523Z,74.72
2019-01-28T01:45:13.311Z,83.22
2019-01-28T01:46:16.666Z,80.30
2019-01-28T01:47:20.056Z,76.87
2019-01-28T01:48:23.346Z,77.87
2019-01-28T01:49:26.621Z,76.20
2019-01-28T01:50:30.026Z,78.60
2019-01-28T01:51:33.312Z,76.53
2019-01-28T01:52:36.633Z,74.60
2019-01-28T01:53:39.919Z,66.33
2019-01-28T01:54:43.218Z,70.15
2019-01-28T01:55:46.544Z,71.77
2019-01-28T01:56:49.820Z,71.72
2019-01-28T01:57:53.112Z,77.35
2019-01-28T01:58:56.395Z,73.28
2019-01-28T01:59:59.672Z,71.57
2019-01-28T02:01:03.028Z,75.47
2019-01-28T02:02:06.315Z,76.35
2019-01-28T02:03:10.061Z,72.03
2019-01-28T02:04:13.797Z,78.35
2019-01-28T02:05:17.079Z,77.75
2019-01-28T02:06:20.362Z,67.60
2019-01-28T02:07:23.648Z,73.80
2019-01-28T02:08:27.021Z,65.28
2019-01-28T02:09:30.296Z,65.80
2019-01-28T02:10:33.581Z,68.62
2019-01-28T02:11:37.026Z,70.57
2019-01-28T02:12:40.300Z,70.30
2019-01-28T02:13:43.623Z,70.85
2019-01-28T02:14:46.908Z,66.87
2019-01-28T02:15:50.206Z,65.50
2019-01-28T02:16:53.489Z,66.37
2019-01-28T02:17:56.776Z,61.63
2019-01-28T02:19:00.093Z,63.15
2019-01-28T02:20:04.421Z,64.05
2019-01-28T02:21:07.695Z,61.13
2019-01-28T02:22:10.983Z,59.63
2019-01-28T02:23:14.265Z,61.50
2019-01-28T02:24:17.647Z,61.02
2019-01-28T02:25:20.923Z,60.78
2019-01-28T02:26:24.208Z,64.60
2019-01-28T02:27:27.569Z,62.40
2019-01-28T02:28:30.845Z,62.60
2019-01-28T02:29:34.237Z,59.95
2019-01-28T02:30:37.525Z,55.03
2019-01-28T02:31:40.808Z,59.35
2019-01-28T02:32:44.156Z,56.92
2019-01-28T02:33:47.440Z,60.70
2019-01-28T02:34:50.765Z,61.73
2019-01-28T02:35:54.050Z,61.55
2019-01-28T02:36:57.330Z,63.08
2019-01-28T02:38:00.630Z,57.83
2019-01-28T02:39:05.432Z,60.60
2019-01-28T02:40:14.471Z,63.63
2019-01-28T02:41:17.837Z,57.25
2019-01-28T02:42:21.122Z,55.67
2019-01-28T02:43:24.406Z,53.68
2019-01-28T02:44:27.686Z,51.15
2019-01-28T02:45:31.076Z,50.60
2019-01-28T02:46:34.361Z,45.58
2019-01-28T02:47:37.644Z,44.08
2019-01-28T02:48:41.031Z,44.85
2019-01-28T02:49:45.106Z,38.08
2019-01-28T02:50:48.427Z,39.42
2019-01-28T02:51:51.733Z,40.95
2019-01-28T02:52:55.024Z,44.03
2019-01-28T02:53:58.633Z,43.60
2019-01-28T02:55:02.218Z,47.33
2019-01-28T02:56:05.527Z,44.63
2019-01-28T02:57:08.835Z,51.85
2019-01-28T02:58:12.109Z,59.67
2019-01-28T02:59:15.391Z,49.85
2019-01-28T03:00:22.659Z,51.53
2019-01-28T03:01:25.999Z,47.67
2019-01-28T03:02:29.281Z,54.67
2019-01-28T03:03:32.565Z,50.05
2019-01-28T03:04:35.920Z,46.85
2019-01-28T03:05:39.209Z,48.70
2019-01-28T03:06:42.532Z,47.85
2019-01-28T03:07:45.831Z,45.78
2019-01-28T03:08:49.155Z,44.95
2019-01-28T03:09:52.800Z,45.70
2019-01-28T03:10:56.162Z,43.75
2019-01-28T03:11:59.962Z,40.60
2019-01-28T03:13:03.243Z,42.78
2019-01-28T03:14:06.533Z,44.50
2019-01-28T03:15:10.496Z,44.93
2019-01-28T03:16:13.763Z,42.83
2019-01-28T03:17:17.079Z,44.85
2019-01-28T03:18:20.356Z,46.70
2019-01-28T03:19:23.663Z,42.95
2019-01-28T03:20:26.963Z,42.38
2019-01-28T03:21:30.246Z,41.08
2019-01-28T03:22:33.559Z,42.27
2019-01-28T03:23:36.908Z,46.23
2019-01-28T03:24:40.194Z,47.75
2019-01-28T03:25:43.477Z,48.10
2019-01-28T03:26:46.766Z,45.30
2019-01-28T03:27:50.074Z,45.67
2019-01-28T03:28:53.356Z,52.58
2019-01-28T03:29:56.639Z,47.33
2019-01-28T03:30:59.927Z,49.55
2019-01-28T03:32:03.213Z,48.63
2019-01-28T03:33:06.533Z,56.75
2019-01-28T03:34:09.809Z,56.10
2019-01-28T03:35:13.133Z,52.17
2019-01-28T03:36:16.416Z,56.68
2019-01-28T03:37:19.693Z,61.10
2019-01-28T03:38:23.402Z,59.95
2019-01-28T03:39:26.682Z,54.65
2019-01-28T03:40:30.284Z,58.68
2019-01-28T03:41:33.569Z,65.08
2019-01-28T03:42:36.847Z,59.18
2019-01-28T03:43:40.170Z,56.18
2019-01-28T03:44:43.451Z,45.92
2019-01-28T03:45:46.731Z,54.33
2019-01-28T03:46:50.153Z,47.43
2019-01-28T03:47:53.424Z,52.58
2019-01-28T03:48:56.741Z,57.70
2019-01-28T03:50:00.024Z,55.35
2019-01-28T03:51:03.310Z,57.65
2019-01-28T03:52:07.963Z,58.10
2019-01-28T03:53:12.607Z,58.63
2019-01-28T03:54:15.924Z,55.40
2019-01-28T03:55:19.455Z,57.23
2019-01-28T03:56:22.732Z,53.65
2019-01-28T03:57:26.015Z,56.48
2019-01-28T03:58:29.436Z,60.65
2019-01-28T03:59:32.849Z,55.67
2019-01-28T04:00:36.135Z,56.15
2019-01-28T04:01:39.754Z,56.02
2019-01-28T04:02:43.035Z,54.63
2019-01-28T04:03:46.317Z,56.90
2019-01-28T04:04:49.628Z,54.15
2019-01-28T04:05:52.922Z,51.35
2019-01-28T04:06:56.202Z,56.90
2019-01-28T04:07:59.496Z,52.95
2019-01-28T04:09:04.423Z,54.05
2019-01-28T04:10:11.074Z,50.35
2019-01-28T04:11:14.717Z,49.58
2019-01-28T04:12:18.018Z,56.58
2019-01-28T04:13:21.283Z,52.38
2019-01-28T04:14:24.569Z,53.73
2019-01-28T04:15:27.893Z,55.10
2019-01-28T04:16:31.551Z,52.10
2019-01-28T04:17:34.836Z,54.73
2019-01-28T04:18:38.123Z,53.70
2019-01-28T04:19:41.747Z,55.92
2019-01-28T04:20:45.062Z,53.98
2019-01-28T04:21:48.349Z,53.50
2019-01-28T04:22:51.630Z,56.35
2019-01-28T04:23:55.289Z,50.85
2019-01-28T04:24:58.716Z,49.95
2019-01-28T04:26:02.024Z,52.17
2019-01-28T04:27:05.304Z,50.08
2019-01-28T04:28:08.586Z,50.67
2019-01-28T04:29:11.868Z,58.13
2019-01-28T04:30:20.122Z,57.17
2019-01-28T04:31:23.426Z,56.65
2019-01-28T04:32:26.715Z,62.35
2019-01-28T04:33:29.993Z,68.85
2019-01-28T04:34:33.346Z,76.05
2019-01-28T04:35:36.629Z,84.45
2019-01-28T04:36:40.010Z,78.60
2019-01-28T04:37:43.403Z,70.52
2019-01-28T04:38:46.702Z,84.58
2019-01-28T04:39:50.377Z,77.22
2019-01-28T04:40:53.660Z,58.48
2019-01-28T04:41:57.119Z,58.95
2019-01-28T04:43:00.719Z,61.20
2019-01-28T04:44:04.009Z,58.65
2019-01-28T04:45:10.690Z,61.88
2019-01-28T04:46:14.011Z,62.00
2019-01-28T04:47:17.333Z,59.58
2019-01-28T04:48:20.604Z,64.60
2019-01-28T04:49:23.888Z,59.85
2019-01-28T04:50:27.170Z,60.85
2019-01-28T04:51:30.820Z,65.37
2019-01-28T04:52:34.197Z,59.38
2019-01-28T04:53:37.567Z,67.72
2019-01-28T04:54:40.891Z,70.35
2019-01-28T04:55:44.174Z,71.47
2019-01-28T04:56:47.483Z,79.35
2019-01-28T04:57:50.770Z,74.45
2019-01-28T04:58:54.351Z,75.70
2019-01-28T04:59:57.871Z,72.90
2019-01-28T05:01:01.178Z,77.25
2019-01-28T05:02:04.458Z,76.25
2019-01-28T05:03:07.745Z,77.92
2019-01-28T05:04:11.029Z,76.85
2019-01-28T05:05:14.715Z,75.78
2019-01-28T05:06:18.077Z,76.37
2019-01-28T05:07:21.427Z,80.42
2019-01-28T05:08:24.707Z,77.35
2019-01-28T05:09:27.999Z,82.95
2019-01-28T05:10:31.316Z,80.60
2019-01-28T05:11:34.666Z,82.75
2019-01-28T05:12:37.973Z,81.78
2019-01-28T05:13:41.267Z,87.20
2019-01-28T05:14:44.847Z,87.60
2019-01-28T05:15:48.200Z,93.35
2019-01-28T05:16:51.489Z,79.40
2019-01-28T05:17:54.776Z,80.55
2019-01-28T05:18:58.064Z,81.82
2019-01-28T05:20:01.420Z,85.70
2019-01-28T05:21:04.772Z,83.25
2019-01-28T05:22:08.119Z,86.30
2019-01-28T05:23:11.423Z,91.15
2019-01-28T05:24:14.706Z,86.37
2019-01-28T05:25:18.239Z,103.50
2019-01-28T05:26:21.920Z,104.75
2019-01-28T05:27:25.206Z,99.87
2019-01-28T05:28:28.525Z,103.60
2019-01-28T05:29:31.874Z,96.00
2019-01-28T05:30:35.381Z,98.75
2019-01-28T05:31:38.738Z,104.12
2019-01-28T05:32:42.443Z,101.65
2019-01-28T05:33:45.862Z,92.72
2019-01-28T05:34:49.138Z,91.63
2019-01-28T05:35:52.458Z,107.52
2019-01-28T05:36:55.734Z,98.97
2019-01-28T05:37:59.101Z,119.45
2019-01-28T05:39:02.486Z,107.90
2019-01-28T05:40:14.694Z,105.43
2019-01-28T05:41:18.048Z,109.83
2019-01-28T05:42:21.346Z,111.62
2019-01-28T05:43:24.670Z,112.62
2019-01-28T05:44:27.998Z,120.42
2019-01-28T05:45:31.281Z,114.77
2019-01-28T05:46:34.565Z,125.72
2019-01-28T05:47:37.859Z,121.82
2019-01-28T05:48:41.217Z,123.30
2019-01-28T05:49:44.547Z,119.17
2019-01-28T05:50:47.906Z,113.35
2019-01-28T05:51:51.193Z,115.10
2019-01-28T05:52:54.496Z,112.85
2019-01-28T05:53:58.184Z,112.25
2019-01-28T05:55:01.503Z,108.37
2019-01-28T05:56:04.792Z,101.22
2019-01-28T05:57:08.781Z,107.17
2019-01-28T05:58:12.149Z,112.80
2019-01-28T05:59:15.445Z,119.30
2019-01-28T06:00:21.263Z,106.05
2019-01-28T06:01:24.911Z,122.65
2019-01-28T06:02:28.189Z,121.20
2019-01-28T06:03:31.470Z,110.25
2019-01-28T06:04:34.758Z,116.03
2019-01-28T06:05:38.090Z,119.47
2019-01-28T06:06:41.375Z,115.82
2019-01-28T06:07:44.737Z,112.32
2019-01-28T06:08:48.021Z,108.83
2019-01-28T06:09:51.314Z,112.15
2019-01-28T06:10:54.641Z,117.25
2019-01-28T06:11:57.922Z,112.55
2019-01-28T06:13:01.282Z,109.67
2019-01-28T06:14:05.003Z,111.08
2019-01-28T06:15:11.607Z,116.28
2019-01-28T06:16:15.030Z,125.53
2019-01-28T06:17:18.316Z,111.42
2019-01-28T06:18:21.601Z,121.10
2019-01-28T06:19:24.885Z,121.22
2019-01-28T06:20:28.488Z,112.22
2019-01-28T06:21:31.816Z,124.85
2019-01-28T06:22:35.102Z,121.33
2019-01-28T06:23:38.748Z,129.47
2019-01-28T06:24:42.115Z,125.95
2019-01-28T06:25:45.415Z,121.65
2019-01-28T06:26:48.742Z,122.05
2019-01-28T06:27:52.027Z,104.58
2019-01-28T06:28:55.335Z,110.15
2019-01-28T06:29:58.635Z,121.17
2019-01-28T06:31:01.923Z,135.10
2019-01-28T06:32:05.222Z,131.20
2019-01-28T06:33:08.521Z,128.95
2019-01-28T06:34:11.809Z,128.80
2019-01-28T06:35:15.119Z,128.87
2019-01-28T06:36:18.845Z,119.72
2019-01-28T06:37:22.165Z,129.63
2019-01-28T06:38:25.539Z,132.20
2019-01-28T06:39:28.833Z,124.05
2019-01-28T06:40:33.870Z,120.72
2019-01-28T06:41:37.230Z,122.72
2019-01-28T06:42:40.708Z,124.33
2019-01-28T06:43:44.040Z,122.33
2019-01-28T06:44:47.296Z,121.20
2019-01-28T06:45:50.586Z,132.50
2019-01-28T06:46:53.879Z,116.85
2019-01-28T06:47:57.202Z,128.20
2019-01-28T06:49:00.495Z,119.82
2019-01-28T06:50:06.138Z,118.33
2019-01-28T06:51:10.438Z,118.25
2019-01-28T06:52:13.794Z,112.47
2019-01-28T06:53:17.147Z,117.28
2019-01-28T06:54:20.506Z,117.70
2019-01-28T06:55:23.807Z,122.75
2019-01-28T06:56:27.407Z,125.87
2019-01-28T06:57:30.757Z,123.35
2019-01-28T06:58:34.380Z,117.17
2019-01-28T06:59:37.672Z,114.10
2019-01-28T07:00:41.034Z,103.95
2019-01-28T07:01:44.388Z,111.12
2019-01-28T07:02:47.751Z,116.22
2019-01-28T07:03:51.083Z,125.62
2019-01-28T07:04:54.369Z,158.78
2019-01-28T07:05:57.976Z,159.10
2019-01-28T07:07:01.270Z,191.85
2019-01-28T07:08:04.566Z,209.35
2019-01-28T07:09:09.134Z,212.15
2019-01-28T07:10:12.589Z,234.77
2019-01-28T07:11:15.896Z,210.30
2019-01-28T07:12:19.257Z,250.60
2019-01-28T07:13:22.642Z,293.77
2019-01-28T07:14:25.975Z,318.17
2019-01-28T07:15:29.278Z,310.32
2019-01-28T07:16:33.503Z,348.90
2019-01-28T07:17:36.841Z,353.37
2019-01-28T07:18:40.147Z,366.50
2019-01-28T07:19:43.474Z,336.23
2019-01-28T07:20:46.840Z,315.27
2019-01-28T07:21:50.208Z,310.52
2019-01-28T07:22:53.580Z,295.50
2019-01-28T07:23:57.020Z,287.68
2019-01-28T07:25:00.360Z,232.57
2019-01-28T07:26:04.053Z,249.10
2019-01-28T07:27:07.492Z,250.55
2019-01-28T07:28:10.788Z,110.42
2019-01-28T07:29:14.518Z,229.80
2019-01-28T07:30:24.471Z,221.22
2019-01-28T07:31:27.766Z,223.25
2019-01-28T07:32:31.064Z,197.78
2019-01-28T07:33:34.356Z,198.80
2019-01-28T07:34:37.798Z,189.97
2019-01-28T07:35:41.272Z,224.20
2019-01-28T07:36:44.617Z,214.20
2019-01-28T07:37:47.923Z,174.15
2019-01-28T07:38:51.289Z,160.90
2019-01-28T07:39:54.593Z,157.70
2019-01-28T07:40:57.939Z,148.95
2019-01-28T07:42:01.211Z,141.53
2019-01-28T07:43:04.587Z,150.65
2019-01-28T07:44:07.863Z,138.28
2019-01-28T07:45:20.648Z,123.22
2019-01-28T07:46:23.975Z,117.67
2019-01-28T07:47:27.340Z,114.55
2019-01-28T07:48:30.707Z,83.78
2019-01-28T07:49:33.999Z,57.27
2019-01-28T07:50:37.300Z,61.83
2019-01-28T07:51:40.706Z,108.83
2019-01-28T07:52:43.995Z,87.37
2019-01-28T07:53:47.384Z,70.78
2019-01-28T07:54:50.672Z,51.20
2019-01-28T07:55:53.979Z,59.45
2019-01-28T07:56:57.304Z,43.45
2019-01-28T07:58:00.603Z,30.68
2019-01-28T07:59:03.969Z,26.45
2019-01-28T08:00:25.216Z,27.40
2019-01-28T08:01:28.573Z,33.60
2019-01-28T08:02:31.964Z,44.67
2019-01-28T08:03:35.251Z,31.70
2019-01-28T08:04:38.533Z,29.43
2019-01-28T08:05:42.248Z,27.35
2019-01-28T08:06:45.566Z,38.40
2019-01-28T08:07:48.864Z,36.03
2019-01-28T08:08:52.220Z,32.15
2019-01-28T08:09:55.521Z,30.43
2019-01-28T08:10:58.797Z,25.93
2019-01-28T08:12:02.089Z,32.73
2019-01-28T08:13:06.087Z,33.57
2019-01-28T08:14:09.366Z,30.50
2019-01-28T08:15:27.241Z,27.60
2019-01-28T08:16:30.526Z,32.80
2019-01-28T08:17:34.258Z,35.90
2019-01-28T08:18:37.560Z,45.37
2019-01-28T08:19:40.839Z,34.90
2019-01-28T08:20:44.240Z,30.40
2019-01-28T08:21:47.524Z,50.30
2019-01-28T08:22:50.873Z,33.10
2019-01-28T08:23:54.546Z,28.73
2019-01-28T08:24:57.830Z,36.10
2019-01-28T08:26:01.158Z,32.50
2019-01-28T08:27:04.541Z,30.63
2019-01-28T08:28:07.835Z,26.50
2019-01-28T08:29:11.111Z,21.63
2019-01-28T08:30:17.805Z,27.90
2019-01-28T08:31:21.137Z,24.67
2019-01-28T08:32:24.422Z,32.30
2019-01-28T08:33:27.716Z,36.80
2019-01-28T08:34:31.083Z,43.43
2019-01-28T08:35:34.826Z,32.03
2019-01-28T08:36:38.141Z,34.13
2019-01-28T08:37:41.498Z,26.77
2019-01-28T08:38:44.835Z,30.33
2019-01-28T08:39:48.123Z,27.80
2019-01-28T08:40:51.405Z,23.17
2019-01-28T08:41:54.769Z,24.10
2019-01-28T08:42:58.330Z,23.07
2019-01-28T08:44:01.691Z,22.00
2019-01-28T08:45:10.608Z,22.00
2019-01-28T08:46:13.889Z,25.97
2019-01-28T08:47:17.278Z,22.77
2019-01-28T08:48:20.627Z,23.57
2019-01-28T08:49:23.902Z,20.13
2019-01-28T08:50:28.935Z,25.90
2019-01-28T08:51:32.292Z,18.57
2019-01-28T08:52:35.618Z,22.70
2019-01-28T08:53:38.915Z,20.47
2019-01-28T08:54:42.567Z,18.93
2019-01-28T08:55:45.849Z,18.67
2019-01-28T08:56:49.130Z,24.00
2019-01-28T08:57:52.536Z,19.67
2019-01-28T08:58:56.026Z,18.57
2019-01-28T08:59:59.342Z,23.93
2019-01-28T09:01:02.687Z,18.20
2019-01-28T09:02:06.255Z,22.63
2019-01-28T09:03:09.578Z,22.10
2019-01-28T09:04:12.857Z,23.97
2019-01-28T09:05:17.288Z,22.40
2019-01-28T09:06:20.578Z,24.80
2019-01-28T09:07:23.858Z,23.50
2019-01-28T09:08:27.184Z,18.63
2019-01-28T09:09:30.479Z,19.77
2019-01-28T09:10:33.837Z,21.07
2019-01-28T09:11:37.246Z,21.40
2019-01-28T09:12:42.119Z,22.57
2019-01-28T09:13:45.443Z,22.10
2019-01-28T09:14:48.857Z,21.70
2019-01-28T09:15:52.211Z,20.47
2019-01-28T09:16:55.633Z,21.73
2019-01-28T09:17:58.988Z,19.37
2019-01-28T09:19:02.261Z,25.10
2019-01-28T09:20:08.818Z,21.63
2019-01-28T09:21:12.183Z,19.57
2019-01-28T09:22:15.468Z,20.10
2019-01-28T09:23:18.810Z,15.70
2019-01-28T09:24:22.137Z,20.83
2019-01-28T09:25:25.500Z,37.97
2019-01-28T09:26:28.774Z,27.90
2019-01-28T09:27:32.061Z,36.77
2019-01-28T09:28:35.439Z,24.43
2019-01-28T09:29:38.845Z,27.87
2019-01-28T09:30:42.121Z,26.33
2019-01-28T09:31:45.509Z,23.30
2019-01-28T09:32:48.791Z,22.17
2019-01-28T09:33:52.073Z,23.03
2019-01-28T09:34:55.519Z,19.97
2019-01-28T09:35:58.861Z,24.23
2019-01-28T09:37:02.577Z,39.77
2019-01-28T09:38:05.868Z,27.20
2019-01-28T09:39:09.158Z,20.80
2019-01-28T09:40:15.521Z,20.40
2019-01-28T09:41:18.803Z,15.97
2019-01-28T09:42:22.168Z,20.47
2019-01-28T09:43:26.577Z,18.87
2019-01-28T09:44:30.048Z,17.20
2019-01-28T09:45:36.071Z,17.80
2019-01-28T09:46:39.362Z,17.37
2019-01-28T09:47:42.663Z,17.67
2019-01-28T09:48:47.382Z,15.97
2019-01-28T09:49:50.615Z,14.70
2019-01-28T09:50:54.015Z,18.87
2019-01-28T09:51:57.302Z,19.30
2019-01-28T09:53:00.673Z,12.70
2019-01-28T09:54:04.043Z,16.90
2019-01-28T09:55:10.766Z,15.13
2019-01-28T09:56:14.659Z,24.60
2019-01-28T09:57:17.969Z,16.87
2019-01-28T09:58:21.333Z,20.30
2019-01-28T09:59:24.682Z,20.43
2019-01-28T10:00:33.786Z,20.63
2019-01-28T10:01:37.178Z,14.87
2019-01-28T10:02:40.452Z,17.53
2019-01-28T10:03:43.803Z,14.90
2019-01-28T10:04:47.091Z,20.60
2019-01-28T10:05:50.506Z,18.07
2019-01-28T10:06:53.900Z,15.27
2019-01-28T10:07:57.249Z,16.07
2019-01-28T10:09:00.526Z,15.40
2019-01-28T10:10:05.708Z,15.93
2019-01-28T10:11:09.183Z,19.43
2019-01-28T10:12:12.538Z,14.53
2019-01-28T10:13:17.110Z,17.17
2019-01-28T10:14:20.434Z,13.67
2019-01-28T10:15:28.789Z,16.07
2019-01-28T10:16:30.278Z,14.17
2019-01-28T10:17:33.578Z,20.97
2019-01-28T10:18:41.862Z,18.10
2019-01-28T10:19:43.879Z,13.77
2019-01-28T10:20:47.703Z,17.00
2019-01-28T10:21:50.992Z,19.00
2019-01-28T10:22:54.321Z,14.97
2019-01-28T10:23:57.596Z,15.43
2019-01-28T10:25:01.788Z,16.63
2019-01-28T10:26:05.548Z,17.73
2019-01-28T10:27:08.846Z,14.73
2019-01-28T10:28:12.180Z,27.80
2019-01-28T10:29:15.536Z,17.90
2019-01-28T10:30:27.100Z,17.13
2019-01-28T10:31:30.385Z,14.30
2019-01-28T10:32:36.237Z,18.27
2019-01-28T10:33:38.723Z,15.60
2019-01-28T10:34:42.010Z,15.10
2019-01-28T10:35:45.300Z,15.83
2019-01-28T10:36:48.590Z,14.20
2019-01-28T10:37:51.877Z,11.37
2019-01-28T10:38:55.256Z,14.97
2019-01-28T10:39:58.561Z,13.10
2019-01-28T10:41:01.845Z,12.17
2019-01-28T10:42:09.723Z,15.47
2019-01-28T10:43:10.271Z,22.47
2019-01-28T10:44:13.570Z,18.23
2019-01-28T10:45:17.234Z,25.90
2019-01-28T10:46:20.511Z,36.40
2019-01-28T10:47:23.903Z,27.73
2019-01-28T10:48:27.209Z,31.50
2019-01-28T10:49:30.568Z,21.00
2019-01-28T10:50:33.963Z,18.93
2019-01-28T10:51:37.626Z,20.43
2019-01-28T10:52:40.928Z,19.53
2019-01-28T10:53:44.216Z,12.93
2019-01-28T10:54:47.621Z,10.83
2019-01-28T10:55:50.971Z,7.70
2019-01-28T10:56:54.252Z,8.33
2019-01-28T10:57:57.771Z,11.27
2019-01-28T10:59:01.044Z,9.67
2019-01-28T11:00:11.542Z,11.87
2019-01-28T11:01:12.637Z,16.23
2019-01-28T11:02:15.924Z,10.47
2019-01-28T11:03:19.552Z,10.33
2019-01-28T11:04:22.847Z,12.63
2019-01-28T11:05:26.165Z,11.77
2019-01-28T11:06:29.449Z,10.23
2019-01-28T11:07:32.736Z,11.53
2019-01-28T11:08:36.017Z,10.33
2019-01-28T11:09:39.413Z,10.00
2019-01-28T11:10:42.762Z,9.80
2019-01-28T11:11:46.103Z,8.27
2019-01-28T11:12:49.462Z,12.80
2019-01-28T11:13:52.880Z,11.97
2019-01-28T11:14:56.264Z,11.70
2019-01-28T11:15:59.654Z,14.27
2019-01-28T11:17:03.018Z,12.07
2019-01-28T11:18:09.656Z,13.47
2019-01-28T11:19:13.037Z,11.17
2019-01-28T11:20:17.222Z,9.03
2019-01-28T11:21:20.551Z,11.47
2019-01-28T11:22:23.948Z,10.93
2019-01-28T11:23:27.264Z,11.93
2019-01-28T11:24:30.639Z,13.37
2019-01-28T11:25:33.959Z,11.93
2019-01-28T11:26:37.269Z,11.90
2019-01-28T11:27:40.654Z,11.10
2019-01-28T11:28:44.858Z,9.23
2019-01-28T11:29:48.360Z,11.77
2019-01-28T11:30:55.465Z,12.30
2019-01-28T11:31:59.243Z,15.17
2019-01-28T11:33:02.526Z,17.73
2019-01-28T11:34:05.813Z,16.53
2019-01-28T11:35:09.206Z,15.03
2019-01-28T11:36:12.628Z,18.93
2019-01-28T11:37:16.401Z,22.23
2019-01-28T11:38:20.668Z,11.43
2019-01-28T11:39:24.102Z,17.07
2019-01-28T11:40:27.359Z,13.37
2019-01-28T11:41:30.821Z,13.87
2019-01-28T11:42:34.376Z,9.27
2019-01-28T11:43:37.809Z,10.03
2019-01-28T11:44:41.058Z,13.63
2019-01-28T11:45:59.621Z,10.67
2019-01-28T11:47:03.060Z,7.90
2019-01-28T11:48:06.920Z,12.97
2019-01-28T11:49:10.299Z,10.87
2019-01-28T11:50:15.979Z,13.07
2019-01-28T11:51:19.305Z,10.23
2019-01-28T11:52:22.724Z,9.57
2019-01-28T11:53:28.306Z,8.37
2019-01-28T11:54:31.591Z,10.67
2019-01-28T11:55:34.928Z,8.57
2019-01-28T11:56:38.238Z,13.23
2019-01-28T11:57:41.931Z,9.63
2019-01-28T11:58:45.358Z,12.37
2019-01-28T11:59:48.636Z,10.83
2019-01-28T12:00:59.229Z,12.40
2019-01-28T12:02:02.569Z,10.90
2019-01-28T12:03:05.827Z,12.03
2019-01-28T12:04:09.183Z,12.00
2019-01-28T12:05:12.473Z,8.80
2019-01-28T12:06:15.843Z,14.87
2019-01-28T12:07:19.162Z,17.63
2019-01-28T12:08:22.859Z,14.07
2019-01-28T12:09:26.443Z,9.03
2019-01-28T12:10:29.791Z,9.53
2019-01-28T12:11:33.079Z,10.77
2019-01-28T12:12:36.397Z,7.80
2019-01-28T12:13:39.703Z,8.20
2019-01-28T12:14:42.966Z,9.30
2019-01-28T12:15:46.251Z,8.90
2019-01-28T12:16:49.836Z,10.47
2019-01-28T12:17:53.152Z,11.60
2019-01-28T12:18:56.503Z,9.60
2019-01-28T12:19:59.889Z,11.67
2019-01-28T12:21:03.209Z,12.93
2019-01-28T12:22:06.904Z,12.43
2019-01-28T12:23:10.231Z,22.80
2019-01-28T12:24:13.674Z,8.87
2019-01-28T12:25:17.436Z,10.57
2019-01-28T12:26:20.737Z,13.23
2019-01-28T12:27:24.013Z,12.27
2019-01-28T12:28:27.328Z,12.07
2019-01-28T12:29:30.981Z,10.70
2019-01-28T12:30:34.279Z,10.10
2019-01-28T12:31:37.560Z,11.13
2019-01-28T12:32:41.178Z,9.43
2019-01-28T12:33:44.507Z,12.47
2019-01-28T12:34:47.780Z,13.20
2019-01-28T12:35:51.074Z,15.00
2019-01-28T12:36:54.351Z,9.53
2019-01-28T12:37:58.004Z,11.03
2019-01-28T12:39:01.335Z,7.67
2019-01-28T12:40:07.860Z,11.03
2019-01-28T12:41:17.332Z,13.80
2019-01-28T12:42:16.185Z,11.63
2019-01-28T12:43:19.621Z,15.30
2019-01-28T12:44:22.944Z,10.97
2019-01-28T12:45:27.973Z,11.87
2019-01-28T12:46:31.252Z,10.77
2019-01-28T12:47:34.546Z,17.07
2019-01-28T12:48:37.828Z,13.33
2019-01-28T12:49:41.138Z,11.60
2019-01-28T12:50:44.421Z,16.00
2019-01-28T12:51:47.792Z,9.70
2019-01-28T12:52:51.055Z,9.90
2019-01-28T12:53:54.335Z,10.90
2019-01-28T12:54:57.650Z,7.43
2019-01-28T12:56:00.934Z,13.73
2019-01-28T12:57:04.220Z,13.50
2019-01-28T12:58:07.510Z,14.10
2019-01-28T12:59:10.784Z,8.90
2019-01-28T13:00:23.611Z,10.20
2019-01-28T13:01:27.011Z,10.23
2019-01-28T13:02:30.313Z,13.77
2019-01-28T13:03:33.609Z,9.43
2019-01-28T13:04:42.083Z,12.03
2019-01-28T13:05:42.699Z,17.37
2019-01-28T13:06:45.990Z,18.63
2019-01-28T13:07:49.346Z,15.50
2019-01-28T13:08:52.619Z,14.90
2019-01-28T13:09:55.909Z,19.20
2019-01-28T13:10:59.232Z,13.90
2019-01-28T13:12:02.527Z,11.27
2019-01-28T13:13:05.873Z,10.37
2019-01-28T13:14:10.203Z,9.63
2019-01-28T13:15:21.832Z,12.20
2019-01-28T13:16:25.152Z,11.37
2019-01-28T13:17:28.584Z,11.53
2019-01-28T13:18:32.024Z,12.37
2019-01-28T13:19:35.301Z,17.67
2019-01-28T13:20:40.288Z,13.90
2019-01-28T13:21:43.857Z,17.03
2019-01-28T13:22:47.148Z,14.47
2019-01-28T13:23:50.508Z,18.50
2019-01-28T13:24:53.791Z,12.73
2019-01-28T13:25:57.082Z,13.80
2019-01-28T13:27:00.394Z,14.40
2019-01-28T13:28:03.764Z,11.93
2019-01-28T13:29:07.095Z,12.97
2019-01-28T13:30:16.538Z,16.27
2019-01-28T13:31:19.960Z,15.50
2019-01-28T13:32:23.287Z,20.77
2019-01-28T13:33:26.590Z,23.17
2019-01-28T13:34:29.950Z,22.33
2019-01-28T13:35:33.303Z,23.57
2019-01-28T13:36:36.967Z,18.90